Time;durP1;ratioP1;P1;durP2;ratioP2;P2;SDS_P1;SDS_P2;PMS_P1;PMS_P2;Temp;Humidity;BMP_temperature;BMP_pressure;BME280_temperature;BME280_humidity;BME280_pressure;Samples;Min_cycle;Max_cycle;Signal;HPM_P1;HPM_P2
2023/07/14 00:01:24;;;;;;;;;13.33;13.33;;;;;-145.45;100.00;57426.63;5061476;28;48409;-66
2023/07/14 00:03:49;;;;;;;;;15.33;11.67;;;;;-145.45;100.00;57426.63;5076783;27;45601;-66
2023/07/14 00:06:16;;;;;;;;;12.00;10.00;;;;;-145.45;100.00;57426.63;5070710;28;45333;-66
2023/07/14 00:08:42;;;;;;;;;12.33;12.33;;;;;-145.45;100.00;57426.63;5070368;28;45350;-66
2023/07/14 00:11:16;;;;;;;;;13.00;11.67;;;;;-145.45;100.00;57426.63;5071146;28;45446;-67
2023/07/14 00:13:42;;;;;;;;;13.33;12.00;;;;;-145.45;100.00;57426.63;5078000;27;45615;-68
2023/07/14 00:16:23;;;;;;;;;14.00;13.00;;;;;-145.45;100.00;57426.63;5077576;28;45231;-69
2023/07/14 00:18:49;;;;;;;;;13.33;12.00;;;;;-145.45;100.00;57426.63;5067199;28;45351;-69
2023/07/14 00:21:22;;;;;;;;;10.33;10.33;;;;;-145.45;100.00;57426.63;5074568;28;45472;-69
2023/07/14 00:23:48;;;;;;;;;14.67;11.67;;;;;-145.45;100.00;57426.63;5071799;27;45379;-69
2023/07/14 00:26:16;;;;;;;;;19.00;13.33;;;;;-145.45;100.00;57426.63;5071294;28;45479;-68
2023/07/14 00:28:43;;;;;;;;;12.33;12.33;;;;;-145.45;100.00;57426.63;5072633;27;45203;-66
2023/07/14 00:31:18;;;;;;;;;14.33;13.33;;;;;-145.45;100.00;57426.63;5072674;28;45229;-67
2023/07/14 00:33:46;;;;;;;;;13.00;12.00;;;;;-145.45;100.00;57426.63;5074646;27;46627;-69
2023/07/14 00:36:12;;;;;;;;;14.67;13.67;;;;;-145.45;100.00;57426.63;5078036;28;45342;-66
2023/07/14 00:38:38;;;;;;;;;15.67;13.33;;;;;-145.45;100.00;57426.63;5074672;27;45323;-67
2023/07/14 00:41:07;;;;;;;;;12.67;12.67;;;;;-145.45;100.00;57426.63;5079273;28;45290;-69
2023/07/14 00:43:34;;;;;;;;;15.33;13.00;;;;;-145.45;100.00;57426.63;5073469;27;45507;-69
2023/07/14 00:45:59;;;;;;;;;17.00;14.00;;;;;-145.45;100.00;57426.63;5074909;28;45755;-67
2023/07/14 00:48:28;;;;;;;;;14.67;13.67;;;;;-145.45;100.00;57426.63;5063932;28;45358;-67
2023/07/14 00:51:10;;;;;;;;;16.33;15.33;;;;;-145.45;100.00;57426.63;5069902;28;45465;-67
2023/07/14 00:53:38;;;;;;;;;19.33;14.67;;;;;-145.45;100.00;57426.63;5078097;28;45679;-67
2023/07/14 00:56:10;;;;;;;;;15.00;14.33;;;;;-145.45;100.00;57426.63;5072538;28;45290;-67
2023/07/14 00:58:37;;;;;;;;;19.00;15.00;;;;;-145.45;100.00;57426.63;5076844;28;45408;-67
2023/07/14 01:01:02;;;;;;;;;19.33;18.00;;;;;-145.45;100.00;57426.63;5073831;27;45405;-67
2023/07/14 01:03:28;;;;;;;;;25.67;23.67;;;;;-145.45;100.00;57426.63;5078674;27;45438;-67
2023/07/14 01:05:54;;;;;;;;;26.67;25.67;;;;;-145.45;100.00;57426.63;5070439;28;45393;-67
2023/07/14 01:08:21;;;;;;;;;23.67;22.67;;;;;-145.45;100.00;57426.63;5073409;28;45260;-68
2023/07/14 01:10:48;;;;;;;;;24.67;23.33;;;;;-145.45;100.00;57426.63;5075188;27;45214;-67
2023/07/14 01:13:13;;;;;;;;;26.00;20.67;;;;;-145.45;100.00;57426.63;5077727;28;45316;-67
2023/07/14 01:15:40;;;;;;;;;21.33;20.67;;;;;-145.45;100.00;57426.63;5074101;27;45287;-67
2023/07/14 01:18:08;;;;;;;;;26.33;23.33;;;;;-145.45;100.00;57426.63;5078621;28;45505;-67
2023/07/14 01:20:37;;;;;;;;;21.00;16.00;;;;;-145.45;100.00;57426.63;5069933;28;45298;-67
2023/07/14 01:23:29;;;;;;;;;18.00;18.00;;;;;-145.45;100.00;57426.63;5076879;27;47490;-67
2023/07/14 01:26:18;;;;;;;;;30.00;27.33;;;;;-145.45;100.00;57426.63;5070945;28;45264;-67
2023/07/14 01:28:43;;;;;;;;;37.00;29.67;;;;;-145.45;100.00;57426.63;5075293;27;45416;-67
2023/07/14 01:31:11;;;;;;;;;31.33;30.00;;;;;-145.45;100.00;57426.63;5071447;28;45429;-67
2023/07/14 01:33:37;;;;;;;;;46.25;38.00;;;;;-145.45;100.00;57426.63;5075563;28;46338;-67
2023/07/14 01:36:04;;;;;;;;;47.00;38.00;;;;;-145.45;100.00;57426.63;5071228;28;45308;-67
2023/07/14 01:38:30;;;;;;;;;48.50;39.50;;;;;-145.45;100.00;57426.63;5073611;27;45433;-67
2023/07/14 01:40:55;;;;;;;;;44.25;37.75;;;;;-145.45;100.00;57426.63;5078547;27;45425;-67
2023/07/14 01:43:21;;;;;;;;;36.00;31.67;;;;;-145.45;100.00;57426.63;5072372;28;45206;-67
2023/07/14 01:45:52;;;;;;;;;28.67;28.00;;;;;-145.45;100.00;57426.63;5066446;28;45363;-67
2023/07/14 01:48:24;;;;;;;;;30.00;26.00;;;;;-145.45;100.00;57426.63;5074657;28;45482;-67
2023/07/14 01:50:58;;;;;;;;;23.67;22.00;;;;;-145.45;100.00;57426.63;5070490;27;45457;-67
2023/07/14 01:53:31;;;;;;;;;21.00;19.33;;;;;-145.45;100.00;57426.63;5072515;27;45445;-67
2023/07/14 01:56:01;;;;;;;;;16.67;16.33;;;;;-145.45;100.00;57426.63;5073850;28;45271;-67
2023/07/14 01:58:36;;;;;;;;;20.67;20.00;;;;;-145.45;100.00;57426.63;5073402;28;45457;-67
2023/07/14 02:01:03;;;;;;;;;16.67;13.33;;;;;-145.45;100.00;57426.63;5065832;28;45336;-68
2023/07/14 02:03:40;;;;;;;;;13.67;12.33;;;;;-145.45;100.00;57426.63;5072309;27;46551;-67
2023/07/14 02:06:06;;;;;;;;;11.67;11.00;;;;;-145.45;100.00;57426.63;5070254;28;45259;-67
2023/07/14 02:08:33;;;;;;;;;10.33;7.33;;;;;-145.45;100.00;57426.63;5071022;28;45507;-67
2023/07/14 02:10:59;;;;;;;;;13.00;11.00;;;;;-145.45;100.00;57426.63;5065460;28;45480;-67
2023/07/14 02:13:24;;;;;;;;;14.00;10.00;;;;;-145.45;100.00;57426.63;5078063;27;45683;-67
2023/07/14 02:15:51;;;;;;;;;20.67;16.33;;;;;-145.45;100.00;57426.63;5071607;28;45414;-67
2023/07/14 02:18:21;;;;;;;;;20.00;17.00;;;;;-145.45;100.00;57426.63;5077708;27;45386;-67
2023/07/14 02:20:48;;;;;;;;;19.00;15.67;;;;;-145.45;100.00;57426.63;5069451;27;45553;-67
2023/07/14 02:23:20;;;;;;;;;14.67;14.67;;;;;-145.45;100.00;57426.63;5070022;28;47247;-67
2023/07/14 02:25:53;;;;;;;;;17.33;17.00;;;;;-145.45;100.00;57426.63;5074564;28;45223;-67
2023/07/14 02:28:18;;;;;;;;;19.33;19.00;;;;;-145.45;100.00;57426.63;5080039;27;45239;-67
2023/07/14 02:30:50;;;;;;;;;18.00;14.33;;;;;-145.45;100.00;57426.63;5071154;28;49768;-67
2023/07/14 02:33:24;;;;;;;;;22.00;19.00;;;;;-145.45;100.00;57426.63;5079596;28;46580;-67
2023/07/14 02:36:13;;;;;;;;;18.33;16.00;;;;;-145.45;100.00;57426.63;5071643;27;45236;-67
2023/07/14 02:38:39;;;;;;;;;25.67;22.00;;;;;-145.45;100.00;57426.63;5077769;27;45325;-67
2023/07/14 02:41:14;;;;;;;;;20.33;20.00;;;;;-145.45;100.00;57426.63;5072947;28;45438;-67
2023/07/14 02:43:40;;;;;;;;;27.00;19.33;;;;;-145.45;100.00;57426.63;5075080;27;45156;-67
2023/07/14 02:46:23;;;;;;;;;22.67;20.67;;;;;-145.45;100.00;57426.63;5074013;28;45234;-67
2023/07/14 02:48:51;;;;;;;;;4.00;2.67;;;;;-145.45;100.00;57426.63;5074144;28;45166;-67
2023/07/14 02:51:17;;;;;;;;;21.33;18.67;;;;;-145.45;100.00;57426.63;5075163;27;45510;-67
2023/07/14 02:53:43;;;;;;;;;22.67;18.33;;;;;-145.45;100.00;57426.63;5079356;28;45258;-67
2023/07/14 02:56:08;;;;;;;;;23.33;20.67;;;;;-145.45;100.00;57426.63;5076558;27;45314;-67
2023/07/14 02:58:34;;;;;;;;;22.33;19.67;;;;;-145.45;100.00;57426.63;5079533;28;45472;-67
2023/07/14 03:01:00;;;;;;;;;20.00;18.33;;;;;-145.45;100.00;57426.63;5075114;28;45587;-67
2023/07/14 03:03:26;;;;;;;;;21.67;18.33;;;;;-145.45;100.00;57426.63;5080393;28;46395;-67
2023/07/14 03:05:53;;;;;;;;;20.00;16.33;;;;;-145.45;100.00;57426.63;5072386;28;45399;-67
2023/07/14 03:08:19;;;;;;;;;19.67;17.00;;;;;-145.45;100.00;57426.63;5073721;28;45711;-67
2023/07/14 03:10:46;;;;;;;;;20.00;18.00;;;;;-145.45;100.00;57426.63;5075140;28;45763;-67
2023/07/14 03:13:14;;;;;;;;;24.67;23.00;;;;;-145.45;100.00;57426.63;5080435;27;45244;-67
2023/07/14 03:15:41;;;;;;;;;22.33;21.00;;;;;-145.45;100.00;57426.63;5075780;28;45224;-67
2023/07/14 03:18:06;;;;;;;;;24.00;21.33;;;;;-145.45;100.00;57426.63;5080015;28;45524;-67
2023/07/14 03:20:32;;;;;;;;;22.00;18.67;;;;;-145.45;100.00;57426.63;5071221;28;54670;-67
2023/07/14 03:22:57;;;;;;;;;20.33;19.00;;;;;-145.45;100.00;57426.63;5078162;28;47585;-67
2023/07/14 03:25:22;;;;;;;;;27.67;23.33;;;;;-145.45;100.00;57426.63;5075641;28;45504;-67
2023/07/14 03:27:48;;;;;;;;;19.33;14.33;;;;;-145.45;100.00;57426.63;5080546;27;45672;-67
2023/07/14 03:30:14;;;;;;;;;20.33;19.33;;;;;-145.45;100.00;57426.63;5069652;28;45450;-67
2023/07/14 03:32:40;;;;;;;;;19.33;19.33;;;;;-145.45;100.00;57426.63;5080092;27;46203;-67
2023/07/14 03:35:05;;;;;;;;;17.00;15.33;;;;;-145.45;100.00;57426.63;5067375;28;45268;-67
2023/07/14 03:37:30;;;;;;;;;13.33;13.00;;;;;-145.45;100.00;57426.63;5076095;28;45415;-67
2023/07/14 03:39:56;;;;;;;;;18.33;16.33;;;;;-145.45;100.00;57426.63;5073305;28;45571;-67
2023/07/14 03:42:21;;;;;;;;;21.00;18.00;;;;;-145.45;100.00;57426.63;5080224;27;46475;-67
2023/07/14 03:44:47;;;;;;;;;16.33;15.00;;;;;-145.45;100.00;57426.63;5077662;27;45224;-67
2023/07/14 03:47:12;;;;;;;;;17.00;13.67;;;;;-145.45;100.00;57426.63;5076577;28;45282;-67
2023/07/14 03:49:37;;;;;;;;;14.00;14.00;;;;;-145.45;100.00;57426.63;5072840;28;46260;-67
2023/07/14 03:52:03;;;;;;;;;16.00;14.67;;;;;-145.45;100.00;57426.63;5080295;28;46331;-67
2023/07/14 03:54:30;;;;;;;;;23.67;15.00;;;;;-145.45;100.00;57426.63;5074443;28;45373;-67
2023/07/14 03:56:55;;;;;;;;;20.00;15.67;;;;;-145.45;100.00;57426.63;5062941;27;45349;-67
2023/07/14 03:59:21;;;;;;;;;17.67;13.67;;;;;-145.45;100.00;57426.63;5074370;27;45499;-67
2023/07/14 04:01:47;;;;;;;;;16.67;13.00;;;;;-145.45;100.00;57426.63;5077048;28;45365;-67
2023/07/14 04:04:15;;;;;;;;;20.67;19.00;;;;;-145.45;100.00;57426.63;5076536;27;45336;-67
2023/07/14 04:06:41;;;;;;;;;19.33;17.67;;;;;-145.45;100.00;57426.63;5069805;28;45358;-67
2023/07/14 04:09:06;;;;;;;;;18.67;17.00;;;;;-145.45;100.00;57426.63;5077417;27;45565;-67
2023/07/14 04:11:34;;;;;;;;;17.67;15.00;;;;;-145.45;100.00;57426.63;5076676;28;45361;-67
2023/07/14 04:14:00;;;;;;;;;18.67;16.33;;;;;-145.45;100.00;57426.63;5077358;27;45540;-67
2023/07/14 04:16:26;;;;;;;;;21.00;16.33;;;;;-145.45;100.00;57426.63;5078737;27;45441;-67
2023/07/14 04:18:51;;;;;;;;;18.00;17.67;;;;;-145.45;100.00;57426.63;5076097;28;46011;-67
2023/07/14 04:21:16;;;;;;;;;19.00;15.67;;;;;-145.45;100.00;57426.63;5079784;28;46569;-67
2023/07/14 04:23:42;;;;;;;;;19.00;16.00;;;;;-145.45;100.00;57426.63;5074058;28;45409;-67
2023/07/14 04:26:08;;;;;;;;;23.33;19.67;;;;;-145.45;100.00;57426.63;5072981;28;45333;-67
2023/07/14 04:28:35;;;;;;;;;19.00;17.33;;;;;-145.45;100.00;57426.63;5077406;28;45583;-67
2023/07/14 04:31:01;;;;;;;;;20.67;19.00;;;;;-145.45;100.00;57426.63;5070730;28;45413;-67
2023/07/14 04:33:27;;;;;;;;;20.00;15.67;;;;;-145.45;100.00;57426.63;5077813;28;45381;-67
2023/07/14 04:35:53;;;;;;;;;16.33;13.67;;;;;-145.45;100.00;57426.63;5079439;28;45412;-67
2023/07/14 04:38:20;;;;;;;;;18.00;18.00;;;;;-145.45;100.00;57426.63;5075112;27;45176;-67
2023/07/14 04:40:46;;;;;;;;;16.67;15.67;;;;;-145.45;100.00;57426.63;5071845;28;45599;-67
2023/07/14 04:43:12;;;;;;;;;21.00;16.67;;;;;-145.45;100.00;57426.63;5078215;27;48805;-67
2023/07/14 04:45:38;;;;;;;;;20.33;18.33;;;;;-145.45;100.00;57426.63;5075050;28;45374;-67
2023/07/14 04:48:06;;;;;;;;;16.67;15.33;;;;;-145.45;100.00;57426.63;5067686;28;45493;-67
2023/07/14 04:50:33;;;;;;;;;21.67;19.00;;;;;-145.45;100.00;57426.63;5069416;28;45451;-67
2023/07/14 04:52:58;;;;;;;;;17.67;14.00;;;;;-145.45;100.00;57426.63;5078734;28;45531;-67
2023/07/14 04:55:23;;;;;;;;;15.67;15.33;;;;;-145.45;100.00;57426.63;5071914;28;46517;-67
2023/07/14 04:57:49;;;;;;;;;22.67;17.67;;;;;-145.45;100.00;57426.63;5075128;27;45366;-67
2023/07/14 05:00:17;;;;;;;;;18.67;15.00;;;;;-145.45;100.00;57426.63;5076344;28;46173;-67
2023/07/14 05:02:43;;;;;;;;;16.67;16.67;;;;;-145.45;100.00;57426.63;5078457;27;45483;-67
2023/07/14 05:05:12;;;;;;;;;15.67;14.00;;;;;-145.45;100.00;57426.63;5076309;28;45439;-67
2023/07/14 05:07:37;;;;;;;;;11.67;11.67;;;;;-145.45;100.00;57426.63;5075512;28;47091;-67
2023/07/14 05:10:03;;;;;;;;;12.67;11.33;;;;;-145.45;100.00;57426.63;5076936;28;46227;-67
2023/07/14 05:12:28;;;;;;;;;18.00;14.67;;;;;-145.45;100.00;57426.63;5073491;28;45267;-67
2023/07/14 05:14:53;;;;;;;;;16.00;13.00;;;;;-145.45;100.00;57426.63;5070582;27;45353;-67
2023/07/14 05:17:19;;;;;;;;;10.67;10.67;;;;;-145.45;100.00;57426.63;5077665;28;46148;-67
2023/07/14 05:19:44;;;;;;;;;15.00;14.00;;;;;-145.45;100.00;57426.63;5070685;28;50807;-67
2023/07/14 05:22:09;;;;;;;;;12.67;9.00;;;;;-145.45;100.00;57426.63;5077506;28;51031;-67
2023/07/14 05:24:35;;;;;;;;;12.00;10.00;;;;;-145.45;100.00;57426.63;5075572;28;45305;-67
2023/07/14 05:27:00;;;;;;;;;13.33;11.67;;;;;-145.45;100.00;57426.63;5074457;28;47457;-68
2023/07/14 05:29:26;;;;;;;;;12.33;8.67;;;;;-145.45;100.00;57426.63;5066506;28;45445;-67
2023/07/14 05:31:51;;;;;;;;;10.33;10.00;;;;;-145.45;100.00;57426.63;5073657;28;45276;-67
2023/07/14 05:34:16;;;;;;;;;8.67;8.67;;;;;-145.45;100.00;57426.63;5073165;27;45464;-67
2023/07/14 05:36:42;;;;;;;;;11.00;8.00;;;;;-145.45;100.00;57426.63;5076028;28;46557;-67
2023/07/14 05:39:07;;;;;;;;;6.67;6.67;;;;;-145.45;100.00;57426.63;5072736;28;47256;-68
2023/07/14 05:41:32;;;;;;;;;7.67;5.00;;;;;-145.45;100.00;57426.63;5075050;28;45326;-67
2023/07/14 05:43:58;;;;;;;;;5.00;5.00;;;;;-145.45;100.00;57426.63;5075269;28;45363;-67
2023/07/14 05:46:23;;;;;;;;;6.33;6.00;;;;;-145.45;100.00;57426.63;5071829;28;45392;-67
2023/07/14 05:48:48;;;;;;;;;8.00;6.33;;;;;-145.45;100.00;57426.63;5074605;28;47916;-67
2023/07/14 05:51:13;;;;;;;;;8.33;6.00;;;;;-145.45;100.00;57426.63;5073201;28;45310;-68
2023/07/14 05:53:39;;;;;;;;;9.00;7.00;;;;;-145.45;100.00;57426.63;5076651;28;45411;-67
2023/07/14 05:56:04;;;;;;;;;4.67;4.67;;;;;-145.45;100.00;57426.63;5076471;28;45520;-67
2023/07/14 05:58:29;;;;;;;;;5.33;5.33;;;;;-145.45;100.00;57426.63;5075302;28;53787;-67
2023/07/14 06:00:55;;;;;;;;;4.67;4.67;;;;;-145.45;100.00;57426.63;5071839;27;45378;-68
2023/07/14 06:03:21;;;;;;;;;7.00;5.00;;;;;-145.45;100.00;57426.63;5080599;27;45221;-67
2023/07/14 06:05:47;;;;;;;;;4.67;4.67;;;;;-145.45;100.00;57426.63;5071670;28;45193;-67
2023/07/14 06:08:13;;;;;;;;;4.67;4.67;;;;;-145.45;100.00;57426.63;5080388;28;45967;-67
2023/07/14 06:10:38;;;;;;;;;5.67;4.00;;;;;-145.45;100.00;57426.63;5076825;28;45382;-67
2023/07/14 06:13:04;;;;;;;;;5.00;5.00;;;;;-145.45;100.00;57426.63;5081417;28;46034;-67
2023/07/14 06:15:29;;;;;;;;;4.33;3.00;;;;;-145.45;100.00;57426.63;5072436;28;45332;-68
2023/07/14 06:17:55;;;;;;;;;5.00;4.00;;;;;-145.45;100.00;57426.63;5081411;28;46198;-68
2023/07/14 06:20:20;;;;;;;;;6.00;5.33;;;;;-145.45;100.00;57426.63;5076553;28;45320;-68
2023/07/14 06:22:48;;;;;;;;;5.33;5.00;;;;;-145.45;100.00;57426.63;5081479;27;45348;-68
2023/07/14 06:25:13;;;;;;;;;3.33;3.00;;;;;-145.45;100.00;57426.63;5076323;28;45590;-68
2023/07/14 06:27:39;;;;;;;;;5.00;4.67;;;;;-145.45;100.00;57426.63;5080762;27;45476;-68
2023/07/14 06:30:05;;;;;;;;;5.33;5.00;;;;;-145.45;100.00;57426.63;5077006;28;45165;-68
2023/07/14 06:32:31;;;;;;;;;5.00;4.00;;;;;-145.45;100.00;57426.63;5080608;27;45199;-67
2023/07/14 06:34:56;;;;;;;;;4.67;4.67;;;;;-145.45;100.00;57426.63;5075883;28;46446;-68
2023/07/14 06:37:25;;;;;;;;;6.33;4.67;;;;;-145.45;100.00;57426.63;5080279;28;46992;-68
2023/07/14 06:39:51;;;;;;;;;5.33;5.00;;;;;-145.45;100.00;57426.63;5073644;28;45349;-67
2023/07/14 06:42:16;;;;;;;;;4.00;4.00;;;;;-145.45;100.00;57426.63;5075879;28;45282;-68
2023/07/14 06:44:42;;;;;;;;;3.00;3.00;;;;;-145.45;100.00;57426.63;5077979;27;45496;-67
2023/07/14 06:47:07;;;;;;;;;5.33;4.33;;;;;-145.45;100.00;57426.63;5076034;28;45401;-67
2023/07/14 06:49:33;;;;;;;;;7.00;5.33;;;;;-145.45;100.00;57426.63;5075208;27;45510;-67
2023/07/14 06:51:58;;;;;;;;;5.00;3.67;;;;;-145.45;100.00;57426.63;5071882;28;47297;-67
2023/07/14 06:54:23;;;;;;;;;5.00;5.00;;;;;-145.45;100.00;57426.63;5079998;28;45366;-67
2023/07/14 06:56:49;;;;;;;;;9.33;5.33;;;;;-145.45;100.00;57426.63;5072620;28;47400;-67
2023/07/14 06:59:14;;;;;;;;;6.00;5.00;;;;;-145.45;100.00;57426.63;5076559;28;45449;-67
2023/07/14 07:01:39;;;;;;;;;10.00;7.00;;;;;-145.45;100.00;57426.63;5071675;28;45556;-67
2023/07/14 07:04:05;;;;;;;;;4.67;3.67;;;;;-145.45;100.00;57426.63;5080244;28;45424;-67
2023/07/14 07:06:30;;;;;;;;;4.33;4.33;;;;;-145.45;100.00;57426.63;5071262;28;46070;-67
2023/07/14 07:08:56;;;;;;;;;6.67;5.67;;;;;-145.45;100.00;57426.63;5073774;27;45424;-67
2023/07/14 07:11:22;;;;;;;;;4.33;4.33;;;;;-145.45;100.00;57426.63;5061670;28;45291;-67
2023/07/14 07:13:47;;;;;;;;;4.00;4.00;;;;;-145.45;100.00;57426.63;5076840;28;45495;-66
2023/07/14 07:16:12;;;;;;;;;6.00;5.00;;;;;-145.45;100.00;57426.63;5071625;28;45331;-67
2023/07/14 07:18:38;;;;;;;;;5.67;5.00;;;;;-145.45;100.00;57426.63;5079508;27;45193;-67
2023/07/14 07:21:03;;;;;;;;;3.33;3.33;;;;;-145.45;100.00;57426.63;5079768;28;49434;-67
2023/07/14 07:23:28;;;;;;;;;6.00;6.00;;;;;-145.45;100.00;57426.63;5075713;28;45488;-66
2023/07/14 07:25:55;;;;;;;;;4.67;4.33;;;;;-145.45;100.00;57426.63;5060933;28;45227;-67
2023/07/14 07:28:20;;;;;;;;;5.00;4.00;;;;;-145.45;100.00;57426.63;5075905;28;45547;-67
2023/07/14 07:30:46;;;;;;;;;5.25;3.25;;;;;-145.45;100.00;57426.63;5071749;27;45805;-67
2023/07/14 07:33:13;;;;;;;;;4.00;4.00;;;;;-145.45;100.00;57426.63;5075187;28;45945;-66
2023/07/14 07:35:40;;;;;;;;;5.00;5.00;;;;;-145.45;100.00;57426.63;5071231;27;46674;-67
2023/07/14 07:38:07;;;;;;;;;5.33;5.00;;;;;-145.45;100.00;57426.63;5078496;27;45150;-67
2023/07/14 07:40:33;;;;;;;;;6.25;4.50;;;;;-145.45;100.00;57426.63;5069242;28;45429;-67
2023/07/14 07:43:01;;;;;;;;;3.00;3.00;;;;;-145.45;100.00;57426.63;5073099;28;45996;-67
2023/07/14 07:45:26;;;;;;;;;8.00;6.00;;;;;-145.45;100.00;57426.63;5091594;27;46293;-67
2023/07/14 07:47:52;;;;;;;;;5.25;5.25;;;;;-145.45;100.00;57426.63;5078530;27;45346;-67
2023/07/14 07:50:17;;;;;;;;;5.00;5.00;;;;;-145.45;100.00;57426.63;5078196;28;47459;-67
2023/07/14 07:52:42;;;;;;;;;6.00;4.00;;;;;-145.45;100.00;57426.63;5079603;27;45353;-66
2023/07/14 07:55:08;;;;;;;;;5.25;5.25;;;;;-145.45;100.00;57426.63;5067471;27;46114;-67
2023/07/14 07:57:33;;;;;;;;;5.00;4.25;;;;;-145.45;100.00;57426.63;5077933;28;44801;-67
2023/07/14 07:59:59;;;;;;;;;7.25;6.50;;;;;-145.45;100.00;57426.63;5068525;27;45339;-66
2023/07/14 08:02:24;;;;;;;;;5.00;3.00;;;;;-145.45;100.00;57426.63;5079765;27;45309;-67
2023/07/14 08:04:51;;;;;;;;;4.25;4.25;;;;;-145.45;100.00;57426.63;5075913;27;53383;-66
2023/07/14 08:07:16;;;;;;;;;20.33;19.33;;;;;-145.45;100.00;57426.63;5063853;28;45361;-67
2023/07/14 08:09:42;;;;;;;;;3.75;3.75;;;;;-145.45;100.00;57426.63;5078401;28;45144;-66
2023/07/14 08:12:08;;;;;;;;;4.00;4.00;;;;;-145.45;100.00;57426.63;5073298;28;50674;-66
2023/07/14 08:14:52;;;;;;;;;5.00;3.75;;;;;-145.45;100.00;57426.63;5070578;28;45441;-67
2023/07/14 08:17:17;;;;;;;;;7.75;5.00;;;;;-145.45;100.00;57426.63;5064403;28;45487;-67
2023/07/14 08:19:42;;;;;;;;;5.75;5.75;;;;;-145.45;100.00;57426.63;5070569;28;45228;-66
2023/07/14 08:22:08;;;;;;;;;3.50;3.50;;;;;-145.45;100.00;57426.63;5068572;28;45402;-67
2023/07/14 08:24:33;;;;;;;;;11.75;3.75;;;;;-145.45;100.00;57426.63;5067669;28;48996;-67
2023/07/14 08:26:58;;;;;;;;;5.25;3.75;;;;;-145.45;100.00;57426.63;5059782;27;45287;-67
2023/07/14 08:29:23;;;;;;;;;4.50;4.25;;;;;-145.45;100.00;57426.63;5065917;28;49115;-67
2023/07/14 08:31:49;;;;;;;;;4.75;4.00;;;;;-145.45;100.00;57426.63;5069770;28;47488;-67
2023/07/14 08:34:14;;;;;;;;;6.25;5.00;;;;;-145.45;100.00;57426.63;5074100;28;45644;-67
2023/07/14 08:36:40;;;;;;;;;4.00;4.00;;;;;-145.45;100.00;57426.63;5070041;28;45296;-66
2023/07/14 08:39:06;;;;;;;;;5.00;5.00;;;;;-145.45;100.00;57426.63;5070601;28;45616;-67
2023/07/14 08:41:38;;;;;;;;;4.00;3.00;;;;;-145.45;100.00;57426.63;5077066;27;45517;-67
2023/07/14 08:44:31;;;;;;;;;4.25;4.25;;;;;-145.45;100.00;57426.63;5071330;28;45389;-67
2023/07/14 08:47:05;;;;;;;;;6.00;5.00;;;;;-145.45;100.00;57426.63;5078247;28;45228;-66
2023/07/14 08:49:38;;;;;;;;;4.25;4.00;;;;;-145.45;100.00;57426.63;5077471;27;45402;-67
2023/07/14 08:52:34;;;;;;;;;5.00;4.25;;;;;-145.45;100.00;57426.63;5071877;28;45286;-67
2023/07/14 08:55:09;;;;;;;;;5.75;5.00;;;;;-145.45;100.00;57426.63;5074512;27;45558;-66
2023/07/14 08:57:48;;;;;;;;;7.00;7.00;;;;;-145.45;100.00;57426.63;5073305;28;45492;-66
2023/07/14 09:00:20;;;;;;;;;8.00;7.00;;;;;-145.45;100.00;57426.63;5071142;28;45416;-67
2023/07/14 09:03:07;;;;;;;;;5.75;4.00;;;;;-145.45;100.00;57426.63;5075320;28;45223;-67
2023/07/14 09:05:36;;;;;;;;;4.50;4.50;;;;;-145.45;100.00;57426.63;5069315;28;45328;-66
2023/07/14 09:08:03;;;;;;;;;4.60;4.60;;;;;-145.45;100.00;57426.63;5066444;28;45714;-66
2023/07/14 09:10:41;;;;;;;;;5.00;4.50;;;;;-145.45;100.00;57426.63;5067376;28;44830;-67
2023/07/14 09:13:18;;;;;;;;;4.25;3.75;;;;;-145.45;100.00;57426.63;5076193;27;45421;-67
2023/07/14 09:15:45;;;;;;;;;4.75;4.00;;;;;-145.45;100.00;57426.63;5072770;28;45440;-67
2023/07/14 09:18:33;;;;;;;;;3.60;3.60;;;;;-145.45;100.00;57426.63;5078565;28;45286;-67
2023/07/14 09:21:39;;;;;;;;;3.80;3.80;;;;;-145.45;100.00;57426.63;5073861;27;45368;-67
2023/07/14 09:24:19;;;;;;;;;3.25;3.25;;;;;-145.45;100.00;57426.63;5069369;27;45266;-66
2023/07/14 09:26:49;;;;;;;;;5.40;3.60;;;;;-145.45;100.00;57426.63;5062919;28;46627;-67
2023/07/14 09:29:19;;;;;;;;;3.60;3.60;;;;;-145.45;100.00;57426.63;5060922;28;46129;-66
2023/07/14 09:31:59;;;;;;;;;4.40;4.40;;;;;-145.45;100.00;57426.63;5074152;28;45499;-67
2023/07/14 09:34:32;;;;;;;;;3.60;3.60;;;;;-145.45;100.00;57426.63;5066301;28;45714;-67
2023/07/14 09:36:58;;;;;;;;;4.40;3.40;;;;;-145.45;100.00;57426.63;5077818;28;46147;-67
2023/07/14 09:39:36;;;;;;;;;2.00;2.00;;;;;-145.45;100.00;57426.63;5072869;27;45290;-67
2023/07/14 09:42:06;;;;;;;;;4.40;4.40;;;;;-145.45;100.00;57426.63;5072945;28;46249;-67
2023/07/14 09:44:32;;;;;;;;;4.80;4.80;;;;;-145.45;100.00;57426.63;5069743;28;45519;-67
2023/07/14 09:47:00;;;;;;;;;3.75;3.75;;;;;-145.45;100.00;57426.63;5079945;28;45594;-67
2023/07/14 09:49:51;;;;;;;;;3.00;3.00;;;;;-145.45;100.00;57426.63;5072791;27;45503;-67
2023/07/14 09:52:27;;;;;;;;;3.20;3.20;;;;;-145.45;100.00;57426.63;5074859;28;45354;-67
2023/07/14 09:54:57;;;;;;;;;2.00;0.80;;;;;-145.45;100.00;57426.63;5069516;27;45545;-67
2023/07/14 09:57:30;;;;;;;;;3.00;3.00;;;;;-145.45;100.00;57426.63;5067958;28;46174;-67
2023/07/14 10:00:01;;;;;;;;;6.00;6.00;;;;;-145.45;100.00;57426.63;5073401;28;45265;-68
2023/07/14 10:02:29;;;;;;;;;3.40;3.40;;;;;-145.45;100.00;57426.63;5082018;27;45319;-67
2023/07/14 10:05:00;;;;;;;;;3.20;3.20;;;;;-145.45;100.00;57426.63;5069463;28;45518;-68
2023/07/14 10:07:25;;;;;;;;;3.80;3.80;;;;;-145.45;100.00;57426.63;5070379;28;47161;-68
2023/07/14 10:10:07;;;;;;;;;3.50;3.25;;;;;-145.45;100.00;57426.63;5066299;28;45474;-68
2023/07/14 10:12:44;;;;;;;;;4.00;3.00;;;;;-145.45;100.00;57426.63;5072573;28;45440;-66
2023/07/14 10:15:30;;;;;;;;;2.00;2.00;;;;;-145.45;100.00;57426.63;5067963;28;45240;-69
2023/07/14 10:17:58;;;;;;;;;3.20;3.20;;;;;-145.45;100.00;57426.63;5074455;28;47059;-67
2023/07/14 10:20:24;;;;;;;;;2.00;2.00;;;;;-145.45;100.00;57426.63;5069003;28;45500;-67
2023/07/14 10:22:53;;;;;;;;;2.25;2.25;;;;;-145.45;100.00;57426.63;5075657;28;45634;-67
2023/07/14 10:25:20;;;;;;;;;2.00;2.00;;;;;-145.45;100.00;57426.63;5073811;28;45440;-67
2023/07/14 10:28:11;;;;;;;;;2.00;2.00;;;;;-145.45;100.00;57426.63;5076096;28;45649;-68
2023/07/14 10:31:19;;;;;;;;;4.00;1.40;;;;;-145.45;100.00;57426.63;5069222;27;45420;-68
2023/07/14 10:34:02;;;;;;;;;2.20;2.00;;;;;-145.45;100.00;57426.63;5027590;28;45336;-70
2023/07/14 10:36:34;;;;;;;;;3.60;3.00;;;;;-145.45;100.00;57426.63;5069246;28;45240;-68
2023/07/14 10:39:09;;;;;;;;;2.60;2.60;;;;;-145.45;100.00;57426.63;5074973;28;46151;-67
2023/07/14 10:41:39;;;;;;;;;4.20;2.80;;;;;-145.45;100.00;57426.63;5074980;28;45700;-69
2023/07/14 10:44:43;;;;;;;;;3.40;3.00;;;;;-145.45;100.00;57426.63;5074021;28;45363;-67
2023/07/14 10:47:20;;;;;;;;;3.80;3.20;;;;;-145.45;100.00;57426.63;5039106;27;46252;-66
2023/07/14 10:49:54;;;;;;;;;5.40;3.80;;;;;-145.45;100.00;57426.63;5069817;27;45452;-67
2023/07/14 10:52:43;;;;;;;;;4.80;4.00;;;;;-145.45;100.00;57426.63;5079581;28;45448;-67
2023/07/14 10:55:21;;;;;;;;;2.20;2.20;;;;;-145.45;100.00;57426.63;5068669;28;45299;-67
2023/07/14 10:57:56;;;;;;;;;7.00;5.00;;;;;-145.45;100.00;57426.63;5076095;28;46190;-67
2023/07/14 11:00:37;;;;;;;;;4.80;4.00;;;;;-145.45;100.00;57426.63;5068539;28;45439;-67
2023/07/14 11:03:17;;;;;;;;;5.80;5.00;;;;;-145.45;100.00;57426.63;5079996;28;47862;-67
2023/07/14 11:05:52;;;;;;;;;3.20;3.20;;;;;-145.45;100.00;57426.63;5073854;28;45310;-67
2023/07/14 11:08:17;;;;;;;;;2.60;1.60;;;;;-145.45;100.00;57426.63;5072540;28;46511;-67
2023/07/14 11:11:03;;;;;;;;;2.00;2.00;;;;;-145.45;100.00;57426.63;5064354;28;45405;-67